Gillette, Wyoming
Current Conditions -  °F | °C
As of 5:53 AM on Friday 19 Dec 2014 (Local Time) from KGCC Reporting Station
Clear Clear  
Wind Chill:   Ceiling: Unl
Heat Index: 16°   Visibility: 10mi
Dew Point: 10°   Wind: 5mph
Humidity: 77%   Direction: 170°S
Pressure: 29.97"   Gusts: NA
Location:  44.29°N, 105.5°W
Report Text: KGCC 191253Z AUTO 17004KT 10SM CLR M09/M12 A2997 RMK AO2 SLP194 T10891122 TSNO
Loading
Personal Weather Stations






























Interactive Weather Map New forecast layout! Learn more

10-Day Weather Forecast

Advertisements
Track Severe Weather on mobile